Time;durP1;ratioP1;P1;durP2;ratioP2;P2;SDS_P1;SDS_P2;PMS_P1;PMS_P2;Temp;Humidity;BMP_temperature;BMP_pressure;BME280_temperature;BME280_humidity;BME280_pressure;Samples;Min_cycle;Max_cycle;Signal;HPM_P1;HPM_P2
2022/06/03 00:02:24;;;;;;;2.00;1.90;;;18.00;70.20;;;18.52;nan;100719.34;4970366;28;24444;-66
2022/06/03 00:05:06;;;;;;;2.20;2.10;;;18.00;70.40;;;18.42;nan;100708.88;4967525;28;24533;-65
2022/06/03 00:08:14;;;;;;;2.30;2.20;;;18.00;70.70;;;18.45;nan;100710.41;4974053;28;24456;-66
2022/06/03 00:11:38;;;;;;;2.30;2.10;;;18.00;71.00;;;18.40;nan;100713.47;4911704;29;24459;-67
2022/06/03 00:14:35;;;;;;;2.38;2.28;;;17.90;71.40;;;18.40;nan;100710.84;4954769;28;24819;-64
2022/06/03 00:17:32;;;;;;;2.30;2.20;;;17.90;71.80;;;18.37;nan;100711.19;4971537;28;24449;-65
2022/06/03 00:20:27;;;;;;;2.40;2.30;;;17.90;72.10;;;18.37;nan;100719.09;4970263;28;25022;-69
2022/06/03 00:22:54;;;;;;;2.65;2.45;;;17.90;72.50;;;18.37;nan;100711.19;4966888;28;25037;-68
2022/06/03 00:25:38;;;;;;;2.30;2.20;;;17.80;72.90;;;18.30;nan;100707.50;4971406;28;24437;-66
2022/06/03 00:28:48;;;;;;;2.35;2.17;;;17.80;73.20;;;18.29;nan;100705.03;4970086;28;24450;-67
2022/06/03 00:31:36;;;;;;;2.50;2.40;;;17.80;73.70;;;18.24;nan;100715.22;4954625;28;24584;-66
2022/06/03 00:34:32;;;;;;;3.10;2.20;;;17.80;73.90;;;18.16;nan;100705.47;4966723;28;24541;-64
2022/06/03 00:37:23;;;;;;;2.30;2.20;;;17.70;74.70;;;18.20;nan;100712.06;4970485;28;24565;-69
2022/06/03 00:39:58;;;;;;;2.30;2.20;;;17.70;74.80;;;18.14;nan;100711.88;4963508;28;24511;-66
2022/06/03 00:42:51;;;;;;;2.45;2.20;;;17.70;74.90;;;18.09;nan;100711.50;4971096;28;25125;-65
2022/06/03 00:45:49;;;;;;;3.28;2.30;;;17.60;74.90;;;18.12;nan;100711.22;4965082;28;24450;-65
2022/06/03 00:48:44;;;;;;;2.60;2.40;;;17.70;74.50;;;18.03;nan;100712.97;4969385;28;24532;-68
2022/06/03 00:51:26;;;;;;;3.92;2.40;;;17.60;75.40;;;17.97;nan;100708.31;4970634;28;24429;-66
2022/06/03 00:54:49;;;;;;;6.22;2.55;;;17.50;75.20;;;17.91;nan;100711.56;4970274;28;24461;-67
2022/06/03 00:58:03;;;;;;;2.90;2.30;;;17.50;75.40;;;17.86;nan;100705.94;4970800;28;24477;-68
2022/06/03 01:00:36;;;;;;;2.50;2.30;;;17.40;75.80;;;17.86;nan;100711.22;4971386;28;24429;-65
2022/06/03 01:03:12;;;;;;;2.50;2.40;;;17.40;76.40;;;17.79;nan;100700.44;4963060;28;24450;-63
2022/06/03 01:06:17;;;;;;;2.65;2.40;;;17.30;76.60;;;17.82;nan;100713.31;4969044;28;24468;-67
2022/06/03 01:09:02;;;;;;;2.78;2.40;;;17.40;76.50;;;17.73;nan;100716.06;4969376;28;24444;-69
2022/06/03 01:12:05;;;;;;;2.20;2.10;;;17.30;76.80;;;17.74;nan;100709.78;4968509;28;24457;-66
2022/06/03 01:15:01;;;;;;;2.50;2.40;;;17.30;76.80;;;17.61;nan;100720.75;4969278;28;24461;-66
2022/06/03 01:18:02;;;;;;;2.10;2.00;;;17.10;76.80;;;17.63;nan;100710.06;4968838;28;25027;-67
2022/06/03 01:20:44;;;;;;;2.40;2.30;;;17.20;76.80;;;17.62;nan;100722.41;4954912;28;24454;-67
2022/06/03 01:23:48;;;;;;;2.30;2.20;;;17.10;76.90;;;17.69;nan;100720.84;4949943;28;24484;-68
2022/06/03 01:26:37;;;;;;;2.30;2.20;;;17.20;76.10;;;17.60;nan;100718.25;4968714;28;24457;-67
2022/06/03 01:29:26;;;;;;;2.30;2.20;;;17.20;76.40;;;17.57;nan;100718.56;4949673;28;24446;-67
2022/06/03 01:32:30;;;;;;;2.30;2.20;;;17.10;76.60;;;17.43;nan;100714.66;4970978;28;24449;-69
2022/06/03 01:35:25;;;;;;;4.00;2.40;;;17.00;77.20;;;17.39;nan;100712.47;4963519;28;25221;-69
2022/06/03 01:38:47;;;;;;;2.30;2.20;;;16.90;77.40;;;17.36;nan;100707.47;4969526;28;24525;-70
2022/06/03 01:41:48;;;;;;;2.40;2.30;;;16.80;78.00;;;17.34;nan;100714.72;4959580;28;24453;-66
2022/06/03 01:44:42;;;;;;;2.28;2.17;;;16.80;77.90;;;17.32;nan;100709.59;4968629;28;24434;-67
2022/06/03 01:47:38;;;;;;;2.10;2.00;;;16.80;78.10;;;17.30;nan;100706.28;4937790;28;24438;-65
2022/06/03 01:50:48;;;;;;;2.20;2.10;;;16.80;77.90;;;17.34;nan;100701.53;4957226;28;24450;-66
2022/06/03 01:53:42;;;;;;;2.10;2.00;;;16.80;77.70;;;17.24;nan;100696.34;4949780;28;24450;-67
2022/06/03 01:56:50;;;;;;;2.40;2.20;;;16.70;77.90;;;17.17;nan;100697.91;4949209;29;24430;-65
2022/06/03 01:59:45;;;;;;;2.17;2.08;;;16.70;78.20;;;17.10;nan;100701.31;4937170;28;24476;-66
2022/06/03 02:02:40;;;;;;;2.20;2.00;;;16.60;78.60;;;17.16;nan;100704.19;4947518;28;24891;-69
2022/06/03 02:05:32;;;;;;;2.60;2.40;;;16.70;78.50;;;17.02;nan;100694.16;4950255;28;24442;-65
2022/06/03 02:08:32;;;;;;;2.20;2.10;;;16.60;78.70;;;17.03;nan;100703.72;4949767;29;24904;-66
2022/06/03 02:11:26;;;;;;;2.17;2.08;;;16.60;78.60;;;17.05;nan;100699.97;4949598;28;24461;-67
2022/06/03 02:14:11;;;;;;;2.40;2.30;;;16.60;78.80;;;17.07;nan;100699.81;4948949;29;24462;-67
2022/06/03 02:16:57;;;;;;;2.38;2.20;;;16.60;78.60;;;17.11;nan;100697.69;4950257;28;24453;-69
2022/06/03 02:20:00;;;;;;;2.00;1.90;;;16.70;78.40;;;17.13;nan;100701.00;4961564;28;24445;-66
2022/06/03 02:22:56;;;;;;;1.90;1.80;;;16.60;78.50;;;17.01;nan;100693.31;4975652;28;24449;-67
2022/06/03 02:26:06;;;;;;;2.25;2.15;;;16.60;78.80;;;16.92;nan;100691.59;4963735;28;25017;-67
2022/06/03 02:32:40;;;;;;;2.30;2.20;;;16.40;80.00;;;16.92;nan;100696.88;4975905;28;24441;-67
2022/06/03 02:35:52;;;;;;;2.50;2.10;;;16.40;80.00;;;17.01;nan;100692.50;4968730;28;24548;-65
2022/06/03 02:38:37;;;;;;;4.80;2.30;;;16.50;79.70;;;16.98;nan;100684.88;4975391;28;24808;-67
2022/06/03 02:41:25;;;;;;;2.38;2.22;;;16.50;79.50;;;16.90;nan;100688.28;4979614;28;24443;-67
2022/06/03 02:44:22;;;;;;;2.50;2.30;;;16.50;80.00;;;16.93;nan;100698.50;4979222;28;24445;-66
2022/06/03 02:47:19;;;;;;;2.20;2.10;;;16.50;79.90;;;17.00;nan;100682.91;4977533;28;24444;-68
2022/06/03 02:50:14;;;;;;;2.33;2.20;;;16.50;80.00;;;16.84;nan;100696.78;4979422;28;20635;-68
2022/06/03 02:53:09;;;;;;;1.70;1.70;;;16.40;80.30;;;16.75;nan;100686.28;4978901;28;20670;-68
2022/06/03 02:56:00;;;;;;;2.37;2.27;;;16.30;81.30;;;16.74;nan;100688.09;4979898;28;20671;-68
2022/06/03 02:58:40;;;;;;;2.20;2.10;;;16.20;81.60;;;16.68;nan;100690.50;4979781;28;20646;-67
2022/06/03 03:01:52;;;;;;;1.90;1.80;;;16.10;81.90;;;16.71;nan;100691.03;4976347;28;20631;-67
2022/06/03 03:04:40;;;;;;;2.10;2.00;;;16.20;81.90;;;16.69;nan;100693.00;4966490;28;20686;-69
2022/06/03 03:07:37;;;;;;;1.80;1.77;;;16.10;82.10;;;16.66;nan;100690.66;4976396;28;20715;-67
2022/06/03 03:10:33;;;;;;;2.60;2.00;;;16.20;82.20;;;16.66;nan;100695.91;4969799;28;20647;-67
2022/06/03 03:13:10;;;;;;;2.27;2.17;;;16.10;82.20;;;16.66;nan;100695.91;4953723;29;20668;-66
2022/06/03 03:16:22;;;;;;;1.80;1.70;;;16.10;82.50;;;16.64;nan;100697.88;4953027;28;20695;-67
2022/06/03 03:19:17;;;;;;;2.83;2.63;;;16.10;82.90;;;16.63;nan;100688.28;4973720;28;21181;-67
2022/06/03 03:22:16;;;;;;;2.10;2.00;;;16.10;82.90;;;16.60;nan;100693.03;4973779;28;20647;-66
2022/06/03 03:25:29;;;;;;;2.43;2.33;;;16.10;83.60;;;16.62;nan;100685.81;4973933;28;20634;-66
2022/06/03 03:28:13;;;;;;;2.47;2.27;;;16.10;83.80;;;16.60;nan;100685.13;4973289;28;20639;-66
2022/06/03 03:31:21;;;;;;;2.40;2.30;;;16.10;84.00;;;16.62;nan;100685.81;4953740;28;20663;-67
2022/06/03 03:34:38;;;;;;;2.17;2.07;;;16.10;84.00;;;16.55;nan;100690.84;4954464;28;20612;-66
2022/06/03 03:37:39;;;;;;;2.17;2.07;;;16.10;84.30;;;16.58;nan;100684.44;4966203;28;20647;-67
2022/06/03 03:40:24;;;;;;;2.60;1.80;;;16.00;84.80;;;16.58;nan;100685.28;4965108;28;20654;-67
2022/06/03 03:43:28;;;;;;;2.30;2.10;;;16.00;85.30;;;16.60;nan;100679.88;4962185;28;20655;-67
2022/06/03 03:46:40;;;;;;;1.90;1.80;;;16.10;85.30;;;16.63;nan;100683.03;4952941;29;20635;-66
2022/06/03 03:49:40;;;;;;;2.20;2.10;;;16.10;85.70;;;16.70;nan;100675.34;4954129;28;20624;-66
2022/06/03 03:52:31;;;;;;;3.90;2.50;;;16.20;85.20;;;16.78;nan;100678.09;4960106;28;20671;-66
2022/06/03 03:55:44;;;;;;;2.40;2.30;;;16.30;84.90;;;16.96;nan;100685.03;4957843;28;20671;-69
2022/06/03 03:58:41;;;;;;;4.90;2.20;;;16.50;84.60;;;17.13;nan;100685.19;4968394;28;20625;-64
2022/06/03 04:01:36;;;;;;;2.27;2.17;;;16.60;84.50;;;17.21;nan;100686.09;4953933;28;20612;-66
2022/06/03 04:04:20;;;;;;;2.13;2.03;;;16.70;83.60;;;17.40;nan;100678.00;4953361;28;21017;-67
2022/06/03 04:07:22;;;;;;;2.07;1.97;;;16.90;82.80;;;17.66;nan;100678.06;4968797;28;20631;-69
2022/06/03 04:10:17;;;;;;;2.17;2.07;;;17.20;82.00;;;17.87;nan;100678.53;4954343;28;20646;-66
2022/06/03 04:13:33;;;;;;;2.40;2.30;;;17.40;80.50;;;18.02;nan;100682.25;4969947;28;20659;-67
2022/06/03 04:16:41;;;;;;;2.20;2.10;;;17.70;79.70;;;18.28;nan;100663.72;4969534;28;20751;-68
2022/06/03 04:19:53;;;;;;;2.20;2.10;;;17.90;78.90;;;18.36;nan;100664.59;4971554;28;20622;-70
2022/06/03 04:22:37;;;;;;;3.33;1.70;;;18.00;78.40;;;18.48;nan;100665.97;4987456;23;20706;-66
2022/06/03 04:25:28;;;;;;;2.10;2.00;;;18.00;77.90;;;18.40;nan;100665.09;4965408;28;20643;-66
2022/06/03 04:28:37;;;;;;;2.30;2.20;;;18.00;78.20;;;18.37;nan;100668.06;4953573;28;20663;-67
2022/06/03 04:31:53;;;;;;;2.37;2.17;;;17.90;78.40;;;18.35;nan;100665.59;4929854;29;20629;-66
2022/06/03 04:35:08;;;;;;;2.53;2.30;;;17.90;78.80;;;18.46;nan;100667.97;4913186;29;20669;-66
2022/06/03 04:38:38;;;;;;;2.40;2.30;;;18.00;78.80;;;18.54;nan;100675.94;4952060;28;20639;-66
2022/06/03 04:41:52;;;;;;;2.13;2.03;;;18.00;78.60;;;18.53;nan;100671.63;4936882;28;20878;-67
2022/06/03 04:45:43;;;;;;;2.20;2.10;;;18.10;78.10;;;18.67;nan;100664.91;4931234;29;20629;-66
2022/06/03 04:48:46;;;;;;;2.20;2.10;;;18.20;78.10;;;18.63;nan;100668.03;4945092;29;20634;-66
2022/06/03 04:51:51;;;;;;;2.23;2.10;;;18.10;78.40;;;18.65;nan;100652.84;4947252;28;20696;-67
2022/06/03 04:54:58;;;;;;;2.40;2.30;;;18.10;78.60;;;18.52;nan;100656.78;4932928;29;20671;-67
2022/06/03 04:58:16;;;;;;;2.40;2.27;;;18.00;78.60;;;18.53;nan;100658.41;4942217;28;20651;-67
2022/06/03 05:01:28;;;;;;;2.53;2.33;;;18.00;79.00;;;18.46;nan;100652.09;4946492;28;21273;-67
2022/06/03 05:04:25;;;;;;;2.67;2.47;;;18.00;78.90;;;18.45;nan;100660.19;4946673;29;21296;-67
2022/06/03 05:07:20;;;;;;;2.40;2.30;;;17.90;78.90;;;18.50;nan;100663.19;4951128;28;20640;-67
2022/06/03 05:10:22;;;;;;;2.50;2.40;;;17.90;79.30;;;18.51;nan;100655.09;4951708;29;20640;-64
2022/06/03 05:13:17;;;;;;;4.10;2.57;;;18.00;79.50;;;18.59;nan;100657.75;4947964;29;20671;-67
2022/06/03 05:16:14;;;;;;;2.73;2.63;;;18.10;79.10;;;18.70;nan;100654.00;4950355;28;20676;-65
2022/06/03 05:18:54;;;;;;;5.50;2.40;;;18.20;78.70;;;18.90;nan;100644.78;4933084;29;20631;-64
2022/06/03 05:22:10;;;;;;;2.60;2.40;;;18.40;78.20;;;19.09;nan;100643.66;4936646;28;20659;-67
2022/06/03 05:25:19;;;;;;;3.13;2.40;;;18.60;78.50;;;19.11;nan;100636.38;4934413;29;20687;-67
2022/06/03 05:28:43;;;;;;;4.23;2.00;;;18.60;77.90;;;19.46;nan;100638.72;4945644;28;20710;-67
2022/06/03 05:31:22;;;;;;;2.13;2.03;;;18.90;77.20;;;19.68;nan;100645.13;4932832;29;20719;-67
2022/06/03 05:34:31;;;;;;;3.40;2.47;;;19.20;76.50;;;19.87;nan;100642.94;4935812;28;20659;-66
2022/06/03 05:37:18;;;;;;;3.30;2.20;;;19.40;75.90;;;20.09;nan;100646.69;4932206;29;20676;-67
2022/06/03 05:40:20;;;;;;;2.10;2.00;;;19.60;75.30;;;20.47;nan;100653.00;4936916;28;20631;-66
2022/06/03 05:42:53;;;;;;;2.40;2.30;;;20.00;74.70;;;20.89;nan;100664.84;4943429;28;20660;-67
2022/06/03 05:45:57;;;;;;;2.20;2.07;;;20.50;73.00;;;21.14;nan;100667.38;4949156;29;21047;-67
2022/06/03 05:48:44;;;;;;;2.33;2.23;;;20.70;71.80;;;21.43;nan;100662.16;4933097;29;21257;-68
2022/06/03 05:51:47;;;;;;;3.10;2.53;;;21.10;71.10;;;21.70;nan;100663.41;4932339;28;20624;-66
2022/06/03 05:54:45;;;;;;;2.30;2.00;;;21.20;69.70;;;22.12;nan;100676.94;4947603;29;20666;-67
2022/06/03 05:57:32;;;;;;;8.70;2.47;;;21.70;68.40;;;22.68;nan;100678.88;4946731;28;20711;-67
2022/06/03 06:00:49;;;;;;;5.03;1.97;;;22.30;67.30;;;23.59;nan;100673.69;4936514;29;20636;-67
2022/06/03 06:03:36;;;;;;;6.30;2.13;;;23.20;65.50;;;24.33;nan;100669.44;4939834;29;20695;-66
2022/06/03 06:06:25;;;;;;;2.00;1.90;;;24.00;62.60;;;24.63;nan;100669.97;4956058;28;20979;-68
2022/06/03 06:09:39;;;;;;;2.40;2.20;;;24.30;61.30;;;24.81;nan;100674.78;4949662;28;20632;-67
2022/06/03 06:12:38;;;;;;;2.63;2.43;;;24.50;60.20;;;25.22;nan;100688.81;4935772;28;20664;-68
2022/06/03 06:15:26;;;;;;;7.93;2.50;;;24.80;59.60;;;25.47;nan;100679.19;4935537;29;20675;-67
2022/06/03 06:18:00;;;;;;;3.50;2.30;;;25.10;59.00;;;25.70;nan;100690.31;4950583;28;20998;-67
2022/06/03 06:21:05;;;;;;;4.10;2.23;;;25.30;58.70;;;26.15;nan;100697.44;4954447;28;20651;-66
2022/06/03 06:23:49;;;;;;;7.30;2.03;;;25.70;58.10;;;26.67;nan;100696.44;4948155;28;20669;-67
2022/06/03 06:26:42;;;;;;;5.13;2.10;;;26.30;57.00;;;26.95;nan;100704.16;4955972;28;20627;-67
2022/06/03 06:29:50;;;;;;;3.50;2.40;;;26.50;55.50;;;27.51;nan;100701.53;4942291;28;20641;-67
2022/06/03 06:32:30;;;;;;;2.30;2.20;;;27.10;54.30;;;28.08;nan;100695.03;4936544;29;21242;-67
2022/06/03 06:35:12;;;;;;;10.67;2.63;;;27.60;53.30;;;28.75;nan;100689.50;4944136;28;20667;-67
2022/06/03 06:38:23;;;;;;;2.63;1.97;;;28.30;52.20;;;29.78;nan;100692.69;4955206;28;20663;-67
2022/06/03 06:41:23;;;;;;;3.45;2.50;;;29.30;51.00;;;31.17;nan;100695.06;4954241;28;24565;-67
2022/06/03 06:44:02;;;;;;;3.10;2.60;;;30.70;48.70;;;32.47;nan;100690.88;4946589;28;24535;-67
2022/06/03 06:46:42;;;;;;;3.90;2.60;;;32.30;47.00;;;33.18;nan;100692.41;4954856;28;20603;-67
2022/06/03 06:49:33;;;;;;;2.73;2.37;;;33.10;45.60;;;34.14;nan;100685.84;4949894;28;20639;-67
2022/06/03 06:52:21;;;;;;;4.67;2.47;;;33.70;45.70;;;34.71;nan;100685.00;4946451;29;21246;-67
2022/06/03 06:55:18;;;;;;;3.10;2.40;;;34.40;44.10;;;34.88;nan;100685.59;4944431;29;20664;-67
2022/06/03 06:57:49;;;;;;;4.20;2.37;;;34.50;43.40;;;35.40;nan;100682.63;4938994;28;21210;-64
2022/06/03 07:00:39;;;;;;;3.37;2.43;;;34.90;42.80;;;35.64;nan;100671.00;4953729;29;20623;-67
2022/06/03 07:03:14;;;;;;;4.37;2.57;;;35.20;42.30;;;35.04;nan;100671.81;4952076;28;20668;-67
2022/06/03 07:06:05;;;;;;;6.97;3.07;;;34.70;42.60;;;35.00;nan;100669.91;4944573;29;20635;-64
2022/06/03 07:08:46;;;;;;;2.63;2.43;;;34.50;43.20;;;34.84;nan;100671.72;4945333;28;20643;-67
2022/06/03 07:11:23;;;;;;;2.00;1.90;;;34.50;42.60;;;35.39;nan;100670.16;4948462;28;20651;-67
2022/06/03 07:13:55;;;;;;;2.57;2.37;;;34.70;42.20;;;36.53;nan;100665.53;4947302;28;21060;-68
2022/06/03 07:20:34;;;;;;;4.20;2.00;;;37.70;40.50;;;39.37;nan;100665.69;4946811;28;20640;-67
2022/06/03 07:23:30;;;;;;;2.53;2.37;;;38.80;39.50;;;40.09;nan;100663.25;4933479;29;20668;-67
2022/06/03 07:26:36;;;;;;;2.20;2.10;;;39.60;38.80;;;39.95;nan;100656.97;4932862;29;20645;-67
2022/06/03 07:29:29;;;;;;;2.27;2.13;;;39.70;38.30;;;40.45;nan;100652.38;4931620;29;20629;-67
2022/06/03 07:32:08;;;;;;;2.03;1.93;;;39.90;37.80;;;40.61;nan;100649.00;4934611;29;20665;-67
2022/06/03 07:34:51;;;;;;;2.33;2.23;;;40.10;37.40;;;39.97;nan;100636.41;4939192;28;20631;-68
2022/06/03 07:37:24;;;;;;;2.03;2.03;;;39.70;37.50;;;40.20;nan;100629.13;4946978;29;21195;-67
2022/06/03 07:40:03;;;;;;;2.50;2.40;;;39.80;37.80;;;40.94;nan;100625.78;4941050;28;20639;-67
2022/06/03 07:43:00;;;;;;;2.13;2.03;;;40.50;37.30;;;41.27;nan;100625.53;4954727;28;21225;-67
2022/06/03 07:46:04;;;;;;;2.10;2.00;;;41.20;36.90;;;41.44;nan;100628.34;4953599;28;20622;-67
2022/06/03 07:48:34;;;;;;;2.23;2.10;;;41.00;36.90;;;41.93;nan;100628.09;4932112;29;20645;-68
2022/06/03 07:51:03;;;;;;;2.60;2.07;;;41.50;36.60;;;41.97;nan;100623.59;4932240;28;20636;-67
2022/06/03 07:53:54;;;;;;;3.47;2.33;;;41.50;36.40;;;41.83;nan;100620.13;4933967;29;21237;-68
2022/06/03 07:56:34;;;;;;;2.27;2.17;;;41.30;36.30;;;42.51;nan;100610.47;4950522;28;20672;-67
2022/06/03 07:59:09;;;;;;;2.97;2.33;;;42.00;36.10;;;42.81;nan;100621.25;4953690;28;20623;-66
2022/06/03 08:01:42;;;;;;;2.93;2.40;;;42.40;35.70;;;42.71;nan;100616.09;4952839;29;20637;-68
2022/06/03 08:04:29;;;;;;;2.53;2.43;;;42.50;35.40;;;43.20;nan;100612.81;4947257;28;20698;-67
2022/06/03 08:12:34;;;;;;;2.27;2.17;;;43.10;34.90;;;43.52;nan;100603.19;4947935;28;20675;-67
2022/06/03 08:15:23;;;;;;;2.07;2.07;;;43.30;34.70;;;43.44;nan;100595.78;4937298;28;20661;-68
2022/06/03 08:17:51;;;;;;;2.20;2.20;;;43.20;34.80;;;43.21;nan;100583.41;4932303;29;20633;-68
2022/06/03 08:20:22;;;;;;;2.70;2.60;;;42.90;34.60;;;43.50;nan;100579.91;4933995;28;21178;-67
2022/06/03 08:22:53;;;;;;;2.43;2.33;;;43.10;34.50;;;44.42;nan;100576.16;4932367;29;20689;-66
2022/06/03 08:25:35;;;;;;;2.23;2.13;;;44.00;34.20;;;43.81;nan;100583.19;4937235;28;20652;-66
2022/06/03 08:28:03;;;;;;;2.90;2.70;;;43.60;33.90;;;44.13;nan;100587.22;4941640;29;20680;-66
2022/06/03 08:30:30;;;;;;;2.50;2.30;;;44.20;33.60;;;43.49;nan;100595.59;4932289;28;20648;-68
2022/06/03 08:33:10;;;;;;;2.27;2.23;;;43.10;34.00;;;44.06;nan;100592.44;4933211;29;20661;-66
2022/06/03 08:35:44;;;;;;;2.50;2.40;;;43.60;33.90;;;44.92;nan;100596.06;4931777;28;20676;-66
2022/06/03 08:38:34;;;;;;;2.40;2.30;;;44.50;34.00;;;44.28;nan;100592.09;4933630;29;21044;-67
2022/06/03 08:41:47;;;;;;;2.47;2.37;;;44.10;33.60;;;42.84;nan;100586.88;4930869;28;20645;-68
2022/06/03 08:44:32;;;;;;;2.20;2.10;;;42.50;34.20;;;43.24;nan;100585.50;4932437;28;20629;-65
2022/06/03 08:47:20;;;;;;;2.50;2.40;;;42.70;34.50;;;44.63;nan;100583.25;4933975;29;20613;-66
2022/06/03 08:50:00;;;;;;;1.83;1.83;;;44.20;34.10;;;46.22;nan;100585.78;4940052;28;21194;-64
2022/06/03 08:52:53;;;;;;;4.20;2.40;;;45.70;33.40;;;46.07;nan;100581.81;4950301;29;21108;-66
2022/06/03 08:55:53;;;;;;;2.50;2.40;;;46.40;32.70;;;46.13;nan;100590.69;4950321;28;20795;-66
2022/06/03 08:58:54;;;;;;;3.83;2.60;;;45.90;33.00;;;46.72;nan;100577.84;4953300;28;21046;-65
2022/06/03 09:01:44;;;;;;;2.37;2.27;;;46.40;32.70;;;45.86;nan;100570.13;4952771;28;20624;-66
2022/06/03 09:04:20;;;;;;;2.20;2.10;;;45.80;32.40;;;45.98;nan;100569.34;4945508;28;20645;-67
2022/06/03 09:06:57;;;;;;;2.90;2.70;;;45.60;32.70;;;45.74;nan;100566.59;4934720;28;20635;-69
2022/06/03 09:10:04;;;;;;;2.30;2.30;;;45.40;32.90;;;45.99;nan;100554.38;4948221;29;20624;-67
2022/06/03 09:12:31;;;;;;;2.60;2.50;;;45.70;32.90;;;45.45;nan;100564.06;4951162;28;20671;-68
2022/06/03 09:15:10;;;;;;;4.00;2.23;;;45.10;32.80;;;46.52;nan;100562.25;4952693;28;20639;-66
2022/06/03 09:18:04;;;;;;;3.07;2.87;;;46.00;32.70;;;46.81;nan;100561.91;4945574;28;20759;-67
2022/06/03 09:20:44;;;;;;;2.60;2.50;;;46.40;32.40;;;47.24;nan;100557.50;4938685;28;20640;-69
2022/06/03 09:23:17;;;;;;;5.63;2.57;;;46.80;32.40;;;47.94;nan;100561.19;4938837;29;20668;-68
2022/06/03 09:25:50;;;;;;;2.50;2.30;;;47.70;32.20;;;48.26;nan;100563.47;4946755;28;20623;-67
2022/06/03 09:28:27;;;;;;;2.77;2.57;;;48.00;32.00;;;48.30;nan;100561.56;4952103;28;20663;-67
2022/06/03 09:30:57;;;;;;;2.80;2.70;;;48.00;32.00;;;48.00;nan;100560.53;4933991;28;20648;-68
2022/06/03 09:33:26;;;;;;;2.47;2.47;;;47.80;31.60;;;48.87;nan;100557.16;4937993;29;20644;-67
2022/06/03 09:36:00;;;;;;;2.60;2.50;;;48.40;31.70;;;49.86;nan;100567.13;4946160;28;20679;-66
2022/06/03 09:38:38;;;;;;;2.30;2.30;;;49.70;31.40;;;49.79;nan;100553.94;4949311;29;21187;-66
2022/06/03 09:41:06;;;;;;;2.63;2.53;;;49.40;31.20;;;49.36;nan;100551.66;4947023;29;20664;-67
2022/06/03 09:43:38;;;;;;;4.90;2.27;;;49.40;31.00;;;49.59;nan;100544.94;4932019;29;21225;-66
2022/06/03 09:46:13;;;;;;;2.70;2.60;;;49.20;31.20;;;50.26;nan;100539.53;4930712;28;20640;-66
2022/06/03 09:48:42;;;;;;;2.60;2.60;;;49.90;31.10;;;50.51;nan;100537.03;4932066;28;20616;-66
2022/06/03 09:54:31;;;;;;;2.90;2.80;;;49.60;31.00;;;47.51;nan;100540.03;4950891;29;20636;-67
2022/06/03 09:57:09;;;;;;;2.83;2.73;;;47.50;31.30;;;47.46;nan;100529.25;4933984;29;20675;-67
2022/06/03 09:59:39;;;;;;;2.70;2.60;;;47.30;31.70;;;46.67;nan;100528.41;4950956;28;20623;-68
2022/06/03 10:02:08;;;;;;;3.20;3.00;;;46.50;32.20;;;45.55;nan;100522.28;4948452;28;20664;-67
2022/06/03 10:04:35;;;;;;;2.80;2.60;;;45.70;32.70;;;44.53;nan;100514.84;4950978;29;20628;-66
2022/06/03 10:07:03;;;;;;;2.63;2.53;;;44.30;33.20;;;42.56;nan;100517.84;4951150;29;20656;-67
2022/06/03 10:12:56;;;;;;;3.10;2.60;;;39.30;36.10;;;38.39;nan;100495.97;4931878;28;20669;-66
2022/06/03 10:15:44;;;;;;;3.50;3.30;;;37.80;37.70;;;37.20;nan;100496.16;4931007;29;21075;-66
2022/06/03 10:18:24;;;;;;;3.37;3.00;;;36.80;38.60;;;36.06;nan;100496.81;4932161;28;20781;-64
2022/06/03 10:21:18;;;;;;;3.47;3.27;;;35.60;39.70;;;35.13;nan;100506.66;4944572;28;21191;-66
2022/06/03 10:23:54;;;;;;;3.30;3.10;;;34.50;40.80;;;33.94;nan;100517.06;4932850;29;21241;-66
2022/06/03 10:26:47;;;;;;;3.83;3.63;;;33.30;42.00;;;33.44;nan;100512.22;4948901;29;20645;-66
2022/06/03 10:29:21;;;;;;;3.60;3.40;;;32.70;42.80;;;33.00;nan;100517.13;4938613;28;21008;-66
2022/06/03 10:32:02;;;;;;;3.70;3.40;;;32.20;43.40;;;32.76;nan;100519.34;4933484;29;20633;-66
2022/06/03 10:34:39;;;;;;;12.43;3.60;;;32.10;43.80;;;32.32;nan;100511.63;4931794;28;20628;-66
2022/06/03 10:37:22;;;;;;;5.10;3.20;;;31.60;44.30;;;31.95;nan;100515.00;4931997;29;21049;-66
2022/06/03 10:39:55;;;;;;;3.37;3.17;;;31.20;44.90;;;31.83;nan;100511.63;4931245;28;20679;-69
2022/06/03 10:42:23;;;;;;;4.00;3.60;;;31.10;45.00;;;31.57;nan;100506.13;4933822;29;20653;-66
2022/06/03 10:44:57;;;;;;;3.60;3.40;;;30.90;45.50;;;31.76;nan;100508.28;4950051;28;20696;-66
2022/06/03 10:47:40;;;;;;;3.77;3.47;;;31.00;45.60;;;32.01;nan;100507.78;4948650;28;20652;-66
2022/06/03 10:50:38;;;;;;;3.30;3.10;;;31.30;45.50;;;31.71;nan;100516.31;4955147;28;21216;-66
2022/06/03 11:01:57;;;;;;;4.73;3.30;;;30.40;46.40;;;30.64;nan;100480.75;4954866;28;21195;-66
2022/06/03 11:04:33;;;;;;;4.13;3.93;;;29.90;47.20;;;30.24;nan;100484.63;4947755;28;21197;-66
2022/06/03 11:07:21;;;;;;;4.77;4.37;;;29.50;47.80;;;29.87;nan;100476.13;4944316;28;20648;-67
2022/06/03 11:09:58;;;;;;;3.67;3.37;;;29.10;48.20;;;29.67;nan;100473.81;4953276;28;20624;-68
2022/06/03 11:12:28;;;;;;;4.13;3.73;;;29.00;48.70;;;29.34;nan;100470.16;4940928;28;20695;-66
2022/06/03 11:14:56;;;;;;;3.47;3.17;;;28.60;49.50;;;29.46;nan;100465.56;4953582;28;20632;-68
2022/06/03 11:17:24;;;;;;;3.90;3.60;;;28.70;49.70;;;29.39;nan;100464.91;4948516;28;20685;-66
2022/06/03 11:19:56;;;;;;;3.93;3.73;;;28.70;49.40;;;29.11;nan;100460.22;4938666;28;20632;-66
2022/06/03 11:22:29;;;;;;;3.67;3.47;;;28.40;50.10;;;29.13;nan;100456.22;4954253;28;20679;-66
2022/06/03 11:25:19;;;;;;;3.73;3.53;;;28.40;50.10;;;29.26;nan;100438.28;4954364;28;20671;-67
2022/06/03 11:28:17;;;;;;;3.80;3.50;;;28.50;50.20;;;29.15;nan;100446.09;4950069;28;20644;-64
2022/06/03 11:31:02;;;;;;;3.60;3.40;;;28.30;50.40;;;29.33;nan;100438.94;4953500;29;20628;-67
2022/06/03 11:33:36;;;;;;;3.70;3.50;;;28.60;50.60;;;29.53;nan;100440.19;4953073;29;20655;-66
2022/06/03 11:36:23;;;;;;;3.83;3.43;;;28.80;50.40;;;29.65;nan;100429.38;4947037;29;20680;-66
2022/06/03 11:39:03;;;;;;;4.13;3.53;;;29.00;50.30;;;29.63;nan;100431.50;4934681;28;21034;-66
2022/06/03 11:41:45;;;;;;;3.83;3.63;;;29.00;50.40;;;29.92;nan;100439.34;4944204;29;21189;-66
2022/06/03 11:44:17;;;;;;;10.23;3.83;;;29.20;50.40;;;29.96;nan;100438.91;4954311;28;20632;-66
2022/06/03 11:47:17;;;;;;;4.00;3.80;;;29.20;50.10;;;29.89;nan;100426.41;4951569;28;20678;-68
2022/06/03 11:49:45;;;;;;;4.10;3.50;;;29.20;50.10;;;29.76;nan;100421.31;4936688;28;20695;-66
2022/06/03 11:52:12;;;;;;;4.47;4.07;;;29.10;50.30;;;29.79;nan;100407.38;4953767;28;20655;-66
2022/06/03 11:54:40;;;;;;;4.00;3.70;;;29.20;50.50;;;29.80;nan;100410.88;4934674;29;21019;-64
2022/06/03 11:57:08;;;;;;;4.40;4.00;;;29.20;50.60;;;29.92;nan;100400.91;4952258;29;20751;-68
2022/06/03 11:59:44;;;;;;;3.70;3.50;;;29.20;50.70;;;29.90;nan;100393.06;4952917;28;20683;-68
2022/06/03 12:02:41;;;;;;;4.23;3.97;;;29.20;50.80;;;29.95;nan;100400.41;4954959;28;21067;-66
2022/06/03 12:05:21;;;;;;;3.90;3.70;;;29.20;50.90;;;30.05;nan;100399.78;4952242;29;20752;-66
2022/06/03 12:08:13;;;;;;;4.13;3.83;;;29.30;50.90;;;30.08;nan;100388.53;4952020;29;20631;-66
2022/06/03 12:10:59;;;;;;;8.63;4.13;;;29.30;51.00;;;29.91;nan;100385.81;4953196;28;20636;-66
2022/06/03 12:13:32;;;;;;;3.70;3.50;;;29.20;51.40;;;29.68;nan;100388.59;4937131;28;20672;-67
2022/06/03 12:16:10;;;;;;;5.00;3.77;;;29.00;51.70;;;29.45;nan;100391.38;4932953;29;21013;-69
2022/06/03 12:18:54;;;;;;;3.80;3.60;;;28.70;52.00;;;29.45;nan;100388.69;4932206;29;20632;-67
2022/06/03 12:21:38;;;;;;;4.30;4.00;;;28.60;52.10;;;29.42;nan;100394.53;4934292;28;21230;-67
2022/06/03 12:24:32;;;;;;;4.20;3.80;;;28.70;52.50;;;29.35;nan;100400.03;4933707;29;21201;-66
2022/06/03 12:27:04;;;;;;;3.70;3.50;;;28.50;52.50;;;29.33;nan;100385.19;4932811;28;20641;-68
2022/06/03 12:29:43;;;;;;;4.83;3.63;;;28.50;52.70;;;29.38;nan;100388.00;4933467;29;20631;-66